Time;durP1;ratioP1;P1;durP2;ratioP2;P2;SDS_P1;SDS_P2;PMS_P1;PMS_P2;Temp;Humidity;BMP_temperature;BMP_pressure;BME280_temperature;BME280_humidity;BME280_pressure;Samples;Min_cycle;Max_cycle;Signal;HPM_P1;HPM_P2
2022/03/29 00:00:03;;;;;;;14.95;8.40;;;9.10;69.70;;;;;;5014274;28;20042;-88
2022/03/29 00:02:29;;;;;;;22.60;8.10;;;9.20;69.80;;;;;;4996781;28;20088;-88
2022/03/29 00:04:54;;;;;;;16.40;7.45;;;9.20;69.50;;;;;;5014482;28;20418;-86
2022/03/29 00:07:20;;;;;;;18.98;7.32;;;9.20;69.80;;;;;;4996555;28;20025;-87
2022/03/29 00:09:46;;;;;;;13.82;8.25;;;9.20;70.20;;;;;;5013634;28;20369;-88
2022/03/29 00:12:11;;;;;;;19.70;8.30;;;9.20;70.60;;;;;;4996389;28;20038;-88
2022/03/29 00:14:37;;;;;;;16.00;8.88;;;9.20;70.20;;;;;;4996142;28;20022;-87
2022/03/29 00:17:03;;;;;;;14.30;8.25;;;9.20;70.10;;;;;;5013576;28;20501;-89
2022/03/29 00:19:29;;;;;;;15.55;8.25;;;9.20;70.70;;;;;;4995942;28;20037;-87
2022/03/29 00:21:55;;;;;;;15.98;8.02;;;9.10;71.20;;;;;;4995880;28;20117;-87
2022/03/29 00:24:20;;;;;;;13.70;8.23;;;9.00;71.20;;;;;;5013994;28;20457;-87
2022/03/29 00:26:46;;;;;;;17.55;8.52;;;9.00;72.60;;;;;;4996348;28;20164;-87
2022/03/29 00:29:12;;;;;;;16.67;7.80;;;9.00;72.30;;;;;;5014446;28;20080;-87
2022/03/29 00:31:37;;;;;;;15.82;8.57;;;8.90;72.50;;;;;;4996329;28;20390;-88
2022/03/29 00:34:03;;;;;;;17.45;8.35;;;9.00;72.00;;;;;;5014877;28;20049;-87
2022/03/29 00:36:29;;;;;;;13.35;7.90;;;9.00;72.00;;;;;;4995609;28;20030;-87
2022/03/29 00:38:55;;;;;;;16.08;8.98;;;8.90;71.90;;;;;;4994999;28;20630;-88
2022/03/29 00:41:21;;;;;;;16.45;8.15;;;8.90;72.50;;;;;;4995202;28;20034;-88
2022/03/29 00:43:47;;;;;;;14.68;8.35;;;8.90;73.00;;;;;;4995907;28;20509;-88
2022/03/29 00:46:12;;;;;;;15.95;8.52;;;8.90;72.70;;;;;;5013395;28;20034;-88
2022/03/29 00:48:38;;;;;;;15.57;8.25;;;8.90;73.10;;;;;;4995867;28;20061;-89
2022/03/29 00:51:05;;;;;;;15.65;8.10;;;8.90;73.40;;;;;;4995231;28;20028;-89
2022/03/29 00:53:31;;;;;;;17.73;8.90;;;8.90;73.90;;;;;;4995576;28;20625;-89
2022/03/29 00:55:59;;;;;;;18.00;8.65;;;8.80;73.80;;;;;;4995896;28;20029;-89
2022/03/29 00:58:25;;;;;;;19.33;9.07;;;8.80;73.70;;;;;;4994726;28;20117;-89
2022/03/29 01:00:52;;;;;;;17.02;9.10;;;8.90;74.10;;;;;;4995586;28;20109;-87
2022/03/29 01:03:18;;;;;;;17.77;9.00;;;8.90;74.30;;;;;;4995665;28;20037;-87
2022/03/29 01:05:44;;;;;;;15.95;8.00;;;8.90;74.20;;;;;;5013017;28;20033;-88
2022/03/29 01:08:10;;;;;;;18.20;8.93;;;8.90;73.80;;;;;;4995192;28;20482;-88
2022/03/29 01:10:36;;;;;;;25.83;8.63;;;9.00;73.20;;;;;;5013005;28;20482;-87
2022/03/29 01:13:02;;;;;;;20.67;8.93;;;9.00;74.00;;;;;;5013142;28;20509;-88
2022/03/29 01:15:33;;;;;;;17.95;9.45;;;9.00;74.20;;;;;;4995836;28;20054;-88
2022/03/29 01:17:59;;;;;;;14.95;8.35;;;8.90;74.10;;;;;;5019803;28;20101;-88
2022/03/29 01:20:27;;;;;;;17.45;8.77;;;8.90;74.80;;;;;;5017310;28;20029;-88
2022/03/29 01:22:55;;;;;;;23.70;9.20;;;8.80;75.30;;;;;;5012650;28;20220;-88
2022/03/29 01:25:35;;;;;;;17.10;9.30;;;8.70;76.70;;;;;;5012617;28;20030;-88
2022/03/29 01:28:03;;;;;;;18.30;8.82;;;8.70;77.50;;;;;;4975835;28;20030;-90
2022/03/29 01:30:28;;;;;;;18.27;9.50;;;8.80;76.20;;;;;;4993788;28;20041;-88
2022/03/29 01:32:55;;;;;;;23.13;9.02;;;8.70;75.10;;;;;;4993479;28;20046;-87
2022/03/29 01:35:24;;;;;;;22.83;9.95;;;8.80;75.00;;;;;;4993252;28;20414;-88
2022/03/29 01:37:54;;;;;;;20.65;9.82;;;8.70;75.00;;;;;;4975973;28;20057;-88
2022/03/29 01:40:23;;;;;;;18.08;9.23;;;8.70;75.40;;;;;;4977862;28;20068;-87
2022/03/29 01:42:49;;;;;;;22.83;9.35;;;8.70;75.80;;;;;;5012514;28;20470;-87
2022/03/29 01:45:16;;;;;;;16.10;9.15;;;8.70;75.50;;;;;;5012335;28;20061;-87
2022/03/29 01:47:42;;;;;;;18.88;9.95;;;8.70;75.40;;;;;;5057510;22;20050;-83
2022/03/29 01:50:09;;;;;;;17.52;8.50;;;8.60;75.30;;;;;;4999851;28;20044;-86
2022/03/29 01:52:42;;;;;;;19.63;10.10;;;8.60;75.70;;;;;;5023555;28;20500;-87
2022/03/29 01:55:09;;;;;;;18.88;9.25;;;8.60;76.30;;;;;;5023158;28;20033;-86
2022/03/29 01:57:35;;;;;;;16.98;8.98;;;8.50;77.00;;;;;;5024443;28;20075;-87
2022/03/29 02:02:45;;;;;;;18.52;9.55;;;8.40;79.10;;;;;;5026043;28;20080;-86
2022/03/29 02:05:11;;;;;;;16.67;9.02;;;8.40;79.70;;;;;;5022340;28;20018;-86
2022/03/29 02:07:36;;;;;;;18.60;9.77;;;8.30;79.80;;;;;;5028061;28;20034;-87
2022/03/29 02:10:05;;;;;;;18.80;9.32;;;8.40;79.60;;;;;;5020178;28;20037;-86
2022/03/29 02:12:30;;;;;;;15.60;9.02;;;8.40;80.40;;;;;;4991815;28;20034;-86
2022/03/29 02:14:56;;;;;;;17.70;9.88;;;8.40;80.10;;;;;;5008432;28;20026;-85
2022/03/29 02:17:22;;;;;;;20.45;9.35;;;8.30;81.10;;;;;;4996210;28;20474;-87
2022/03/29 02:19:47;;;;;;;19.35;9.23;;;8.30;81.30;;;;;;5010851;28;20030;-85
2022/03/29 02:22:13;;;;;;;17.67;9.77;;;8.40;81.30;;;;;;5006436;28;20394;-86
2022/03/29 02:24:38;;;;;;;16.27;8.82;;;8.40;80.10;;;;;;4994382;28;20238;-84
2022/03/29 02:27:04;;;;;;;17.73;9.95;;;8.50;80.00;;;;;;5009784;28;20066;-86
2022/03/29 02:29:30;;;;;;;19.35;9.00;;;8.40;79.90;;;;;;4991317;28;20034;-87
2022/03/29 02:31:55;;;;;;;17.30;8.80;;;8.30;80.70;;;;;;4991099;28;20026;-85
2022/03/29 02:34:21;;;;;;;21.00;9.13;;;8.30;82.70;;;;;;5007734;28;20526;-86
2022/03/29 02:36:47;;;;;;;19.98;8.88;;;8.20;82.80;;;;;;5007067;28;20033;-85
2022/03/29 02:39:12;;;;;;;19.85;9.95;;;8.30;83.70;;;;;;5007259;28;20057;-86
2022/03/29 02:41:38;;;;;;;15.63;9.13;;;8.20;83.40;;;;;;4988986;28;20161;-86
2022/03/29 02:44:06;;;;;;;15.82;8.90;;;8.20;83.40;;;;;;4990558;28;20418;-86
2022/03/29 02:46:34;;;;;;;14.60;8.13;;;8.30;82.90;;;;;;5007561;28;20041;-89
2022/03/29 02:49:00;;;;;;;19.13;8.93;;;8.30;82.60;;;;;;4989815;28;20027;-87
2022/03/29 02:51:26;;;;;;;17.95;9.45;;;8.30;84.10;;;;;;4994294;28;20026;-88
2022/03/29 02:53:52;;;;;;;16.75;9.60;;;8.20;84.10;;;;;;5006765;28;20034;-88
2022/03/29 02:56:18;;;;;;;20.67;9.75;;;8.20;84.10;;;;;;5011260;28;20056;-87
2022/03/29 02:58:44;;;;;;;16.20;8.40;;;8.20;84.40;;;;;;5007349;28;20022;-86
2022/03/29 03:01:09;;;;;;;16.02;8.95;;;8.10;85.10;;;;;;4989441;28;20226;-84
2022/03/29 03:03:35;;;;;;;15.98;9.70;;;8.10;86.40;;;;;;5006641;28;20022;-86
2022/03/29 03:06:00;;;;;;;14.75;8.50;;;8.00;87.60;;;;;;5009755;28;20045;-88
2022/03/29 03:08:27;;;;;;;17.67;9.80;;;8.00;88.30;;;;;;4992492;28;20045;-86
2022/03/29 03:10:52;;;;;;;19.15;9.60;;;7.90;88.90;;;;;;4992196;28;20102;-86
2022/03/29 03:13:18;;;;;;;23.08;9.75;;;7.90;89.30;;;;;;5007743;28;20576;-85
2022/03/29 03:15:44;;;;;;;15.32;8.18;;;8.00;89.00;;;;;;5007671;28;20019;-87
2022/03/29 03:18:09;;;;;;;14.85;8.98;;;8.00;89.70;;;;;;5020784;28;20014;-86
2022/03/29 03:20:35;;;;;;;19.63;9.48;;;7.90;89.00;;;;;;5012927;28;20046;-87
2022/03/29 03:23:02;;;;;;;25.80;8.95;;;7.90;89.10;;;;;;5028885;28;20049;-88
2022/03/29 03:25:27;;;;;;;18.90;8.75;;;7.90;90.00;;;;;;5010799;28;20033;-87
2022/03/29 03:27:53;;;;;;;18.75;8.93;;;7.80;90.80;;;;;;5012119;28;20030;-87
2022/03/29 03:30:20;;;;;;;15.95;8.25;;;7.80;91.00;;;;;;5006307;28;20033;-85
2022/03/29 03:32:46;;;;;;;12.85;8.00;;;7.80;91.60;;;;;;5005928;28;20086;-86
2022/03/29 03:35:12;;;;;;;13.30;8.25;;;7.80;92.40;;;;;;5005840;28;20038;-87
2022/03/29 03:37:38;;;;;;;21.40;8.63;;;7.70;92.90;;;;;;5004536;28;20022;-86
2022/03/29 03:40:07;;;;;;;16.10;8.40;;;7.70;94.00;;;;;;5005238;28;20022;-85
2022/03/29 03:42:33;;;;;;;15.15;8.52;;;7.70;93.70;;;;;;4987140;28;20040;-85
2022/03/29 03:44:59;;;;;;;14.68;7.93;;;7.70;93.40;;;;;;4987899;28;20029;-86
2022/03/29 03:47:26;;;;;;;14.20;8.57;;;7.60;93.50;;;;;;4987593;28;20050;-85
2022/03/29 03:49:52;;;;;;;16.40;8.82;;;7.60;93.30;;;;;;5005898;28;20050;-86
2022/03/29 03:52:17;;;;;;;16.38;8.48;;;7.60;93.10;;;;;;5005135;28;20067;-85
2022/03/29 03:54:44;;;;;;;14.50;8.27;;;7.50;93.70;;;;;;5005191;28;20084;-86
2022/03/29 03:57:09;;;;;;;15.98;8.05;;;7.60;93.60;;;;;;4999983;28;20113;-85
2022/03/29 03:59:35;;;;;;;13.30;8.35;;;7.50;93.20;;;;;;5025677;28;20030;-85
2022/03/29 04:02:02;;;;;;;15.25;8.45;;;7.60;93.00;;;;;;5025172;28;20052;-83
2022/03/29 04:04:28;;;;;;;17.42;9.13;;;7.50;93.60;;;;;;5014725;28;20026;-84
2022/03/29 04:06:54;;;;;;;18.67;8.25;;;7.50;94.40;;;;;;4984048;28;20034;-82
2022/03/29 04:09:19;;;;;;;16.50;8.65;;;7.50;95.20;;;;;;5002883;28;20156;-84
2022/03/29 04:11:45;;;;;;;21.88;9.07;;;7.50;94.60;;;;;;4984699;28;20141;-84
2022/03/29 04:14:11;;;;;;;20.52;8.20;;;7.50;94.30;;;;;;4987326;28;20034;-86
2022/03/29 04:16:36;;;;;;;14.15;7.90;;;7.40;96.00;;;;;;5005279;28;20037;-86
2022/03/29 04:19:02;;;;;;;19.13;8.02;;;7.30;96.50;;;;;;5005717;28;20037;-86
2022/03/29 04:21:28;;;;;;;15.32;8.48;;;7.30;96.90;;;;;;5004453;28;20055;-84
2022/03/29 04:23:53;;;;;;;18.17;8.40;;;7.20;96.70;;;;;;4987245;28;20121;-84
2022/03/29 04:26:19;;;;;;;16.45;7.78;;;7.30;97.20;;;;;;4987962;28;20023;-87
2022/03/29 04:28:45;;;;;;;16.70;8.45;;;7.20;97.10;;;;;;4987560;28;20034;-86
2022/03/29 04:31:11;;;;;;;23.67;8.30;;;7.20;97.40;;;;;;4985670;28;20065;-86
2022/03/29 04:33:37;;;;;;;19.55;8.88;;;7.10;98.20;;;;;;5003002;28;20049;-86
2022/03/29 04:36:04;;;;;;;20.88;9.35;;;7.10;99.20;;;;;;4984741;28;20022;-84
2022/03/29 04:38:30;;;;;;;19.45;8.35;;;7.10;98.90;;;;;;5007534;28;20019;-86
2022/03/29 04:40:56;;;;;;;20.17;9.63;;;7.20;98.50;;;;;;5009706;28;20027;-86
2022/03/29 04:43:22;;;;;;;19.75;8.90;;;7.20;98.40;;;;;;4991844;28;20050;-85
2022/03/29 04:45:48;;;;;;;16.17;8.52;;;7.20;98.70;;;;;;4986818;28;20116;-84
2022/03/29 04:48:14;;;;;;;18.38;8.77;;;7.10;99.30;;;;;;5003501;28;20038;-85
2022/03/29 04:50:40;;;;;;;15.07;8.40;;;7.10;99.80;;;;;;5003758;28;20450;-87
2022/03/29 04:53:07;;;;;;;14.48;7.95;;;7.10;99.90;;;;;;5001006;28;20037;-84
2022/03/29 04:55:33;;;;;;;14.02;7.88;;;7.00;99.90;;;;;;5001298;28;20053;-83
2022/03/29 04:58:00;;;;;;;14.45;8.18;;;6.90;99.90;;;;;;5001925;28;20461;-84
2022/03/29 05:00:47;;;;;;;16.38;8.68;;;6.80;99.90;;;;;;5002975;28;20022;-84
2022/03/29 05:03:13;;;;;;;15.55;8.27;;;6.80;99.90;;;;;;4986522;28;20030;-84
2022/03/29 05:05:39;;;;;;;17.05;8.65;;;6.80;99.90;;;;;;4986302;28;20421;-85
2022/03/29 05:08:04;;;;;;;20.58;9.13;;;6.90;99.90;;;;;;5002444;28;20053;-83
2022/03/29 05:10:30;;;;;;;16.38;8.98;;;6.90;99.90;;;;;;5004392;28;20030;-84
2022/03/29 05:12:58;;;;;;;16.65;7.90;;;6.90;99.90;;;;;;4989222;28;20029;-85
2022/03/29 05:15:24;;;;;;;20.67;9.43;;;6.90;99.90;;;;;;4986666;28;20026;-84
2022/03/29 05:17:50;;;;;;;21.70;9.82;;;6.90;99.90;;;;;;5006632;28;20445;-85
2022/03/29 05:20:16;;;;;;;17.60;9.00;;;6.90;99.90;;;;;;4982360;28;20022;-86
2022/03/29 05:22:51;;;;;;;18.45;9.27;;;6.90;99.90;;;;;;4981707;28;20121;-84
2022/03/29 05:25:18;;;;;;;21.15;10.00;;;6.90;99.90;;;;;;4997373;28;20049;-84
2022/03/29 05:27:45;;;;;;;17.02;8.85;;;6.90;99.90;;;;;;4981876;28;20027;-87
2022/03/29 05:30:12;;;;;;;18.92;9.48;;;6.90;99.90;;;;;;5011992;28;20030;-87
2022/03/29 05:32:39;;;;;;;16.73;8.82;;;6.90;99.90;;;;;;5004163;28;20030;-86
2022/03/29 05:35:07;;;;;;;16.17;9.30;;;6.90;99.90;;;;;;5000407;28;20030;-86
2022/03/29 05:37:36;;;;;;;17.80;9.30;;;6.80;99.90;;;;;;4980585;28;20025;-86
2022/03/29 05:40:04;;;;;;;16.80;9.48;;;6.80;99.90;;;;;;4978472;28;20022;-86
2022/03/29 05:42:30;;;;;;;17.27;9.05;;;6.90;99.90;;;;;;4979375;28;20034;-87
2022/03/29 05:44:55;;;;;;;19.27;9.10;;;6.80;99.90;;;;;;5001362;28;20031;-85
2022/03/29 05:50:06;;;;;;;23.27;9.18;;;6.80;99.90;;;;;;4994817;28;20057;-86
2022/03/29 05:52:32;;;;;;;16.90;9.00;;;6.90;99.90;;;;;;4975859;28;20030;-85
2022/03/29 05:54:57;;;;;;;20.25;9.75;;;6.80;99.90;;;;;;4993969;28;20166;-86
2022/03/29 05:57:23;;;;;;;15.93;9.40;;;6.90;99.90;;;;;;4979325;28;20026;-85
2022/03/29 05:59:49;;;;;;;15.25;8.98;;;6.80;99.90;;;;;;4976166;28;20052;-85
2022/03/29 06:02:14;;;;;;;15.65;8.82;;;6.80;99.90;;;;;;4977944;28;20023;-85
2022/03/29 06:04:40;;;;;;;15.02;8.23;;;6.80;99.90;;;;;;5012371;28;20033;-86
2022/03/29 06:07:06;;;;;;;20.08;9.55;;;6.80;99.90;;;;;;4995283;28;20018;-85
2022/03/29 06:09:33;;;;;;;20.92;9.07;;;6.90;99.90;;;;;;4997131;28;20080;-85
2022/03/29 06:12:05;;;;;;;16.90;9.25;;;6.90;99.90;;;;;;4985582;28;20085;-88
2022/03/29 06:14:31;;;;;;;13.90;8.93;;;6.90;99.90;;;;;;4980556;28;20034;-86
2022/03/29 06:16:57;;;;;;;17.98;8.30;;;7.00;99.90;;;;;;4997219;28;20430;-83
2022/03/29 06:19:23;;;;;;;14.68;8.30;;;7.00;99.90;;;;;;4977921;28;20076;-84
2022/03/29 06:21:48;;;;;;;17.90;8.73;;;7.00;99.90;;;;;;4994513;28;20321;-85
2022/03/29 06:24:14;;;;;;;16.33;9.23;;;6.90;99.90;;;;;;4995132;28;20030;-85
2022/03/29 06:26:40;;;;;;;17.85;9.20;;;7.00;99.90;;;;;;4980722;28;20027;-85
2022/03/29 06:29:07;;;;;;;18.98;8.77;;;7.00;99.90;;;;;;4990575;28;20026;-86
2022/03/29 06:31:33;;;;;;;17.98;8.18;;;7.00;99.90;;;;;;4995485;28;20019;-83
2022/03/29 06:33:59;;;;;;;16.75;8.70;;;7.10;99.90;;;;;;4995652;28;20049;-84
2022/03/29 06:36:25;;;;;;;19.67;8.98;;;7.10;99.90;;;;;;4980234;28;20026;-86
2022/03/29 06:38:51;;;;;;;18.52;8.57;;;7.20;99.90;;;;;;4994950;28;20033;-85
2022/03/29 06:41:16;;;;;;;19.45;9.63;;;7.20;99.90;;;;;;4999626;28;20026;-82
2022/03/29 06:43:43;;;;;;;25.05;10.50;;;7.30;99.90;;;;;;4981963;28;20027;-84
2022/03/29 06:46:09;;;;;;;16.48;9.20;;;7.30;99.90;;;;;;5002085;28;20030;-85
2022/03/29 06:48:36;;;;;;;17.63;8.65;;;7.50;99.90;;;;;;4999006;28;20031;-85
2022/03/29 06:51:02;;;;;;;14.48;8.73;;;7.60;99.90;;;;;;4982960;28;20026;-86
2022/03/29 06:53:28;;;;;;;18.45;9.18;;;7.70;99.90;;;;;;5000754;28;20098;-86
2022/03/29 06:55:54;;;;;;;15.07;8.18;;;7.80;99.90;;;;;;4984999;28;20061;-84
2022/03/29 06:58:20;;;;;;;15.93;8.82;;;7.90;99.90;;;;;;4998240;28;20022;-84
2022/03/29 07:00:46;;;;;;;17.00;8.52;;;7.90;99.90;;;;;;5006633;28;20096;-84
2022/03/29 07:03:11;;;;;;;17.25;9.40;;;8.00;99.90;;;;;;4995842;28;20029;-85
2022/03/29 07:05:42;;;;;;;18.15;8.90;;;8.00;99.90;;;;;;4979426;28;20198;-86
2022/03/29 07:08:10;;;;;;;20.13;9.13;;;8.10;99.90;;;;;;4999221;28;20030;-84
2022/03/29 07:13:22;;;;;;;19.75;10.00;;;8.30;99.90;;;;;;4997982;28;20034;-85
2022/03/29 07:15:51;;;;;;;20.23;9.63;;;8.40;99.90;;;;;;4997517;28;20077;-85
2022/03/29 07:18:17;;;;;;;17.13;9.90;;;8.50;99.90;;;;;;4993005;28;20229;-85
2022/03/29 07:20:42;;;;;;;18.83;9.73;;;8.60;99.90;;;;;;4999651;28;20605;-85
2022/03/29 07:23:08;;;;;;;20.05;10.23;;;8.70;99.90;;;;;;5016743;28;20038;-84
2022/03/29 07:25:34;;;;;;;27.25;11.70;;;8.90;99.90;;;;;;4985196;28;20023;-85
2022/03/29 07:28:01;;;;;;;23.60;10.35;;;9.00;99.90;;;;;;4978099;28;20031;-84
2022/03/29 07:30:28;;;;;;;19.75;10.57;;;9.20;99.90;;;;;;4960369;28;20035;-85
2022/03/29 07:32:57;;;;;;;21.85;10.40;;;9.30;99.90;;;;;;4994013;28;20487;-85
2022/03/29 07:35:25;;;;;;;20.00;10.57;;;9.40;98.60;;;;;;4979244;28;20030;-85
2022/03/29 07:37:51;;;;;;;21.15;10.77;;;9.60;97.50;;;;;;5002882;28;20582;-85
2022/03/29 07:40:20;;;;;;;19.90;11.07;;;9.70;96.30;;;;;;4978767;28;20034;-85
2022/03/29 07:42:45;;;;;;;25.48;11.07;;;9.90;95.90;;;;;;4987185;28;20033;-86
2022/03/29 07:45:11;;;;;;;19.65;10.05;;;10.00;96.10;;;;;;4958913;28;20019;-84
2022/03/29 07:47:38;;;;;;;24.42;10.25;;;10.10;96.40;;;;;;4983635;28;20022;-83
2022/03/29 07:50:07;;;;;;;26.58;11.07;;;10.30;95.60;;;;;;4986219;28;20042;-85
2022/03/29 07:52:38;;;;;;;22.00;11.35;;;10.40;94.50;;;;;;4978010;28;20040;-85
2022/03/29 07:55:06;;;;;;;23.77;11.10;;;10.60;94.10;;;;;;4995721;28;20022;-84
2022/03/29 07:57:32;;;;;;;24.27;11.30;;;10.80;94.40;;;;;;4986584;28;20031;-87
2022/03/29 07:59:58;;;;;;;20.60;10.55;;;10.90;92.20;;;;;;4986695;28;20101;-84
2022/03/29 08:02:23;;;;;;;23.45;10.73;;;11.00;91.40;;;;;;4983325;28;20429;-84
2022/03/29 08:04:49;;;;;;;22.17;10.85;;;11.20;90.20;;;;;;4975763;28;20118;-85
2022/03/29 08:07:16;;;;;;;24.13;11.15;;;11.30;90.10;;;;;;4991826;28;20014;-86
2022/03/29 08:09:41;;;;;;;20.75;12.40;;;11.40;87.50;;;;;;4977595;28;20478;-84
2022/03/29 08:12:07;;;;;;;22.35;10.82;;;11.50;87.90;;;;;;4994080;28;20045;-85
2022/03/29 08:14:33;;;;;;;23.45;11.95;;;11.70;88.70;;;;;;4969395;28;20041;-85
2022/03/29 08:16:59;;;;;;;30.15;11.68;;;11.80;87.40;;;;;;4972325;28;20177;-85
2022/03/29 08:19:25;;;;;;;27.15;12.07;;;12.00;85.20;;;;;;4996074;28;20164;-85
2022/03/29 08:21:50;;;;;;;23.35;12.40;;;12.20;82.60;;;;;;4995321;28;20109;-85
2022/03/29 08:24:23;;;;;;;24.88;10.75;;;12.30;78.00;;;;;;5013563;28;20061;-86
2022/03/29 08:26:50;;;;;;;20.65;10.75;;;12.50;71.00;;;;;;4996492;28;20083;-85
2022/03/29 08:29:16;;;;;;;25.50;10.18;;;12.70;69.00;;;;;;5014128;28;20037;-83
2022/03/29 08:31:43;;;;;;;21.65;10.65;;;12.90;65.10;;;;;;5013751;28;20018;-83
2022/03/29 08:34:10;;;;;;;22.08;9.70;;;13.10;60.40;;;;;;5014696;28;20389;-83
2022/03/29 08:36:36;;;;;;;21.98;10.32;;;13.30;57.90;;;;;;5014342;28;20037;-84
2022/03/29 08:39:03;;;;;;;21.17;10.05;;;13.50;57.10;;;;;;5014136;28;20106;-85
2022/03/29 08:41:38;;;;;;;16.60;9.80;;;13.70;57.50;;;;;;5012906;28;20030;-82
2022/03/29 08:44:05;;;;;;;18.23;10.20;;;13.80;56.00;;;;;;4990594;28;20092;-85
2022/03/29 08:46:38;;;;;;;21.95;9.80;;;14.00;54.90;;;;;;4974095;28;20362;-84
2022/03/29 08:49:05;;;;;;;17.77;10.27;;;14.10;55.50;;;;;;4995843;28;20490;-85
2022/03/29 08:51:31;;;;;;;17.67;9.05;;;14.20;53.30;;;;;;4995560;28;20034;-84
2022/03/29 08:53:57;;;;;;;20.23;8.90;;;14.20;52.90;;;;;;4999406;28;20092;-84
2022/03/29 08:56:23;;;;;;;18.63;9.27;;;14.20;50.80;;;;;;5008138;28;20029;-84
2022/03/29 08:58:48;;;;;;;15.30;8.18;;;14.20;51.40;;;;;;4992262;28;20027;-84
2022/03/29 09:01:19;;;;;;;17.95;9.40;;;14.20;50.40;;;;;;4976019;28;20034;-84
2022/03/29 09:03:44;;;;;;;19.73;9.75;;;14.30;51.10;;;;;;4974610;28;20084;-84
2022/03/29 09:06:10;;;;;;;18.15;9.63;;;14.30;50.90;;;;;;4958609;28;20089;-84
2022/03/29 09:08:46;;;;;;;22.88;9.50;;;14.40;52.40;;;;;;4976934;28;20031;-85
2022/03/29 09:11:12;;;;;;;17.50;9.02;;;14.60;55.20;;;;;;4981094;28;20074;-87
2022/03/29 09:13:40;;;;;;;20.20;9.35;;;14.70;53.90;;;;;;4963353;28;20089;-84
2022/03/29 09:16:10;;;;;;;17.58;9.00;;;14.80;51.50;;;;;;4982744;28;20031;-85
2022/03/29 09:18:37;;;;;;;18.40;9.63;;;14.80;50.20;;;;;;5009363;28;20065;-85
2022/03/29 09:21:08;;;;;;;21.70;9.98;;;14.60;49.30;;;;;;5015937;28;20022;-85
2022/03/29 09:23:34;;;;;;;19.23;9.98;;;14.60;50.20;;;;;;4997162;28;20494;-84
2022/03/29 09:26:01;;;;;;;27.75;9.38;;;14.60;50.60;;;;;;5018959;28;20030;-85
2022/03/29 09:28:36;;;;;;;14.75;9.40;;;14.60;48.10;;;;;;5021951;28;20325;-85
2022/03/29 09:31:15;;;;;;;15.05;8.13;;;14.60;47.00;;;;;;5004289;28;20026;-85
2022/03/29 09:33:41;;;;;;;17.83;9.27;;;14.40;45.70;;;;;;4967043;28;20177;-85
2022/03/29 09:36:08;;;;;;;16.92;9.25;;;14.60;47.30;;;;;;4979777;28;20062;-86
2022/03/29 09:38:42;;;;;;;15.35;8.75;;;14.70;45.70;;;;;;4998287;28;20041;-85
2022/03/29 09:41:26;;;;;;;14.82;9.05;;;14.70;46.00;;;;;;5016605;28;20026;-85
2022/03/29 09:44:09;;;;;;;16.90;8.93;;;14.80;45.10;;;;;;4998180;28;20018;-85
2022/03/29 09:47:02;;;;;;;16.00;8.88;;;14.80;45.00;;;;;;4980500;28;20034;-84
2022/03/29 09:49:28;;;;;;;18.25;9.43;;;15.00;44.90;;;;;;4996489;28;20053;-85
2022/03/29 09:52:20;;;;;;;20.17;9.35;;;15.20;44.10;;;;;;4994069;28;20023;-85
2022/03/29 09:55:04;;;;;;;15.43;9.10;;;15.40;43.50;;;;;;4985631;28;20085;-85
2022/03/29 09:57:38;;;;;;;16.85;9.10;;;15.60;41.80;;;;;;5016276;28;20026;-85
2022/03/29 10:00:07;;;;;;;17.90;9.85;;;15.70;42.80;;;;;;4994639;28;20031;-84
2022/03/29 10:02:40;;;;;;;20.65;10.35;;;15.90;42.70;;;;;;4973956;28;20034;-85
2022/03/29 10:05:07;;;;;;;15.48;9.30;;;16.00;42.20;;;;;;4993300;28;20057;-84
2022/03/29 10:07:44;;;;;;;15.30;9.20;;;16.00;41.60;;;;;;4985014;28;20110;-83
2022/03/29 10:10:11;;;;;;;19.70;9.35;;;15.90;41.50;;;;;;4993789;28;20030;-83
2022/03/29 10:12:37;;;;;;;17.67;9.73;;;16.00;41.70;;;;;;4998418;28;20030;-84
2022/03/29 10:15:05;;;;;;;19.75;9.55;;;16.00;41.50;;;;;;4982965;28;20045;-84
2022/03/29 10:17:33;;;;;;;17.80;10.30;;;15.90;41.00;;;;;;4988301;28;20037;-86
2022/03/29 10:20:01;;;;;;;19.58;10.70;;;15.70;41.70;;;;;;5002408;28;20033;-86
2022/03/29 10:22:27;;;;;;;16.45;9.40;;;15.30;41.70;;;;;;5019481;28;20022;-84
2022/03/29 10:24:53;;;;;;;20.95;10.20;;;15.20;42.50;;;;;;5001398;28;20025;-85
2022/03/29 10:27:21;;;;;;;16.95;8.90;;;15.20;42.90;;;;;;4996908;28;20397;-85
2022/03/29 10:29:47;;;;;;;18.70;9.43;;;15.30;43.60;;;;;;4990421;28;20029;-85
2022/03/29 10:32:31;;;;;;;17.80;9.93;;;15.30;42.90;;;;;;5009920;28;20019;-85
2022/03/29 10:35:06;;;;;;;18.75;10.07;;;15.40;42.80;;;;;;4994397;28;20026;-85
2022/03/29 10:37:55;;;;;;;15.65;9.52;;;15.40;42.80;;;;;;5001561;28;20030;-85
2022/03/29 10:40:40;;;;;;;19.15;9.43;;;15.50;43.80;;;;;;4980681;28;20184;-85
2022/03/29 10:43:53;;;;;;;18.65;9.85;;;15.60;42.70;;;;;;4998518;28;20026;-85
2022/03/29 10:46:41;;;;;;;17.95;9.35;;;15.60;43.00;;;;;;4885538;29;20039;-84
2022/03/29 10:49:22;;;;;;;23.52;10.40;;;15.60;43.30;;;;;;4904792;29;20135;-84
2022/03/29 10:51:57;;;;;;;19.05;9.60;;;15.70;42.10;;;;;;4966544;28;20081;-84
2022/03/29 10:54:26;;;;;;;20.60;9.57;;;15.70;42.40;;;;;;4982760;28;20054;-84
2022/03/29 10:57:06;;;;;;;20.27;10.23;;;15.60;42.40;;;;;;4975477;28;20478;-85
2022/03/29 10:59:37;;;;;;;21.48;10.80;;;15.70;42.20;;;;;;4989176;28;20046;-85
2022/03/29 11:02:20;;;;;;;20.95;10.25;;;15.60;42.10;;;;;;4999767;28;20026;-84
2022/03/29 11:05:10;;;;;;;18.77;9.57;;;15.70;42.80;;;;;;4999530;28;20026;-84
2022/03/29 11:07:51;;;;;;;17.77;10.05;;;15.90;42.50;;;;;;4998288;28;20023;-84
2022/03/29 11:10:19;;;;;;;15.35;9.70;;;16.10;42.10;;;;;;4977071;28;20117;-84
2022/03/29 11:12:48;;;;;;;18.50;11.32;;;16.10;42.30;;;;;;4967037;28;20445;-84
2022/03/29 11:15:35;;;;;;;20.63;10.93;;;16.30;42.50;;;;;;4980835;28;20146;-85
2022/03/29 11:18:06;;;;;;;19.73;10.05;;;16.40;42.10;;;;;;5008308;28;20037;-84
2022/03/29 11:20:42;;;;;;;19.27;10.03;;;16.60;41.70;;;;;;5017023;28;20033;-83
2022/03/29 11:23:11;;;;;;;19.15;10.20;;;16.80;41.50;;;;;;5002322;28;20025;-84
2022/03/29 11:25:50;;;;;;;18.75;9.23;;;16.90;40.90;;;;;;5007259;28;20034;-86
2022/03/29 11:28:18;;;;;;;20.83;10.45;;;17.20;41.00;;;;;;4983052;28;20037;-85
2022/03/29 11:30:44;;;;;;;19.77;9.95;;;17.40;39.30;;;;;;4981388;28;20491;-83
2022/03/29 11:33:11;;;;;;;18.02;10.48;;;17.60;40.00;;;;;;4982365;28;20561;-83
2022/03/29 11:35:39;;;;;;;23.75;10.35;;;17.70;39.90;;;;;;4998196;28;20030;-83
2022/03/29 11:38:13;;;;;;;21.83;10.55;;;17.80;39.20;;;;;;5010625;28;20026;-85
2022/03/29 11:40:39;;;;;;;18.88;9.77;;;17.90;40.00;;;;;;4982477;28;20038;-84
2022/03/29 11:43:10;;;;;;;19.55;9.65;;;18.20;38.90;;;;;;5003616;28;20029;-85
2022/03/29 11:45:40;;;;;;;;;;;18.30;38.70;;;;;;5015694;28;20032;-85
2022/03/29 11:48:11;;;;;;;22.13;9.63;;;18.40;39.60;;;;;;5000642;28;19914;-85
2022/03/29 11:50:45;;;;;;;16.55;10.13;;;18.40;39.40;;;;;;5012302;28;20071;-85
2022/03/29 11:53:35;;;;;;;20.70;10.38;;;18.40;39.20;;;;;;5012658;28;20026;-83
2022/03/29 11:56:04;;;;;;;14.90;9.27;;;18.00;39.70;;;;;;4983893;28;20436;-84
2022/03/29 11:58:50;;;;;;;19.92;10.05;;;17.70;40.50;;;;;;5011419;28;20053;-84
2022/03/29 12:01:21;;;;;;;18.15;10.32;;;17.50;41.10;;;;;;4999888;28;20030;-84
2022/03/29 12:03:59;;;;;;;20.15;10.43;;;17.40;42.00;;;;;;4981093;28;20490;-84
2022/03/29 12:06:27;;;;;;;19.88;10.52;;;17.40;41.20;;;;;;4980312;28;20108;-84
2022/03/29 12:09:03;;;;;;;21.40;10.23;;;17.30;40.90;;;;;;4997070;28;20033;-84
2022/03/29 12:11:34;;;;;;;15.98;8.80;;;17.30;42.70;;;;;;4996513;28;20521;-85
2022/03/29 12:14:05;;;;;;;18.10;10.15;;;17.40;41.60;;;;;;4979187;28;20042;-85
2022/03/29 12:16:37;;;;;;;19.38;10.00;;;17.40;41.10;;;;;;4995215;28;20033;-86
2022/03/29 12:19:11;;;;;;;20.58;10.15;;;17.50;42.20;;;;;;4999095;28;20478;-83
2022/03/29 12:21:37;;;;;;;16.38;9.48;;;17.50;41.50;;;;;;4991999;28;20084;-83
2022/03/29 12:24:07;;;;;;;20.17;10.18;;;17.60;41.00;;;;;;4996077;28;20041;-83
2022/03/29 12:26:36;;;;;;;17.90;9.95;;;17.60;40.80;;;;;;4979688;28;20026;-86
2022/03/29 12:29:05;;;;;;;23.08;9.88;;;17.60;41.30;;;;;;4981322;28;20034;-82
2022/03/29 12:31:34;;;;;;;21.73;10.50;;;17.60;40.70;;;;;;4998046;28;20050;-84
2022/03/29 12:34:00;;;;;;;21.98;10.13;;;17.70;41.80;;;;;;5017502;28;20101;-84
2022/03/29 12:36:26;;;;;;;19.08;10.32;;;17.70;40.90;;;;;;4998933;28;20045;-83
2022/03/29 12:39:00;;;;;;;15.80;9.52;;;17.80;41.10;;;;;;4996640;28;20034;-84
2022/03/29 12:41:38;;;;;;;18.85;9.98;;;18.00;41.80;;;;;;4977987;28;20022;-84
2022/03/29 12:44:27;;;;;;;21.73;10.23;;;18.10;40.90;;;;;;4998860;28;20113;-85
2022/03/29 12:46:53;;;;;;;16.35;10.27;;;18.00;41.40;;;;;;5001375;28;20485;-85
2022/03/29 12:49:19;;;;;;;19.98;10.10;;;17.80;41.60;;;;;;5004879;28;20037;-85
2022/03/29 12:51:53;;;;;;;23.10;10.45;;;17.80;41.60;;;;;;5019367;28;20048;-86
2022/03/29 12:54:18;;;;;;;19.20;10.48;;;17.80;41.40;;;;;;5019107;28;20266;-84